sensor_id;sensor_type;location;lat;lon;timestamp;P1;durP1;ratioP1;P2;durP2;ratioP2
44270;SDS011;29963;44.594;11.368;2023-07-08T00:00:20;8.63;;;5.85;;
44270;SDS011;29963;44.594;11.368;2023-07-08T00:02:47;9.07;;;5.32;;
44270;SDS011;29963;44.594;11.368;2023-07-08T00:05:14;9.20;;;5.15;;
44270;SDS011;29963;44.594;11.368;2023-07-08T00:07:41;8.05;;;5.65;;
44270;SDS011;29963;44.594;11.368;2023-07-08T00:12:41;7.45;;;4.47;;
44270;SDS011;29963;44.594;11.368;2023-07-08T00:15:08;8.88;;;5.20;;
44270;SDS011;29963;44.594;11.368;2023-07-08T00:17:33;10.05;;;5.38;;
44270;SDS011;29963;44.594;11.368;2023-07-08T00:19:59;9.52;;;5.88;;
44270;SDS011;29963;44.594;11.368;2023-07-08T00:22:25;6.38;;;5.00;;
44270;SDS011;29963;44.594;11.368;2023-07-08T00:24:50;7.93;;;5.75;;
44270;SDS011;29963;44.594;11.368;2023-07-08T00:27:16;11.13;;;5.43;;
44270;SDS011;29963;44.594;11.368;2023-07-08T00:29:42;11.73;;;6.20;;
44270;SDS011;29963;44.594;11.368;2023-07-08T00:32:12;13.82;;;5.57;;
44270;SDS011;29963;44.594;11.368;2023-07-08T00:34:39;9.20;;;6.28;;
44270;SDS011;29963;44.594;11.368;2023-07-08T00:37:05;10.88;;;6.68;;
44270;SDS011;29963;44.594;11.368;2023-07-08T00:39:33;12.43;;;6.30;;
44270;SDS011;29963;44.594;11.368;2023-07-08T00:41:58;9.45;;;5.70;;
44270;SDS011;29963;44.594;11.368;2023-07-08T00:44:26;13.80;;;6.32;;
44270;SDS011;29963;44.594;11.368;2023-07-08T00:49:37;10.65;;;6.22;;
44270;SDS011;29963;44.594;11.368;2023-07-08T00:52:18;11.40;;;6.22;;
44270;SDS011;29963;44.594;11.368;2023-07-08T00:54:44;9.48;;;5.57;;
44270;SDS011;29963;44.594;11.368;2023-07-08T00:57:10;14.02;;;6.15;;
44270;SDS011;29963;44.594;11.368;2023-07-08T00:59:42;12.73;;;6.78;;
44270;SDS011;29963;44.594;11.368;2023-07-08T01:02:21;11.10;;;6.55;;
44270;SDS011;29963;44.594;11.368;2023-07-08T01:07:21;12.50;;;6.68;;
44270;SDS011;29963;44.594;11.368;2023-07-08T01:09:51;9.90;;;6.07;;
44270;SDS011;29963;44.594;11.368;2023-07-08T01:12:29;12.15;;;6.63;;
44270;SDS011;29963;44.594;11.368;2023-07-08T01:14:59;10.98;;;5.55;;
44270;SDS011;29963;44.594;11.368;2023-07-08T01:17:27;8.43;;;6.30;;
44270;SDS011;29963;44.594;11.368;2023-07-08T01:19:57;11.77;;;6.63;;
44270;SDS011;29963;44.594;11.368;2023-07-08T01:22:24;9.38;;;6.38;;
44270;SDS011;29963;44.594;11.368;2023-07-08T01:24:49;12.30;;;7.88;;
44270;SDS011;29963;44.594;11.368;2023-07-08T01:27:16;8.43;;;6.28;;
44270;SDS011;29963;44.594;11.368;2023-07-08T01:29:44;8.05;;;6.20;;
44270;SDS011;29963;44.594;11.368;2023-07-08T01:32:12;10.73;;;6.63;;
44270;SDS011;29963;44.594;11.368;2023-07-08T01:34:43;7.80;;;5.80;;
44270;SDS011;29963;44.594;11.368;2023-07-08T01:37:24;13.93;;;6.45;;
44270;SDS011;29963;44.594;11.368;2023-07-08T01:39:53;7.28;;;6.43;;
44270;SDS011;29963;44.594;11.368;2023-07-08T01:42:19;10.65;;;6.43;;
44270;SDS011;29963;44.594;11.368;2023-07-08T01:44:45;11.38;;;6.32;;
44270;SDS011;29963;44.594;11.368;2023-07-08T01:47:13;9.70;;;6.68;;
44270;SDS011;29963;44.594;11.368;2023-07-08T01:49:44;14.98;;;6.45;;
44270;SDS011;29963;44.594;11.368;2023-07-08T01:52:11;11.23;;;6.30;;
44270;SDS011;29963;44.594;11.368;2023-07-08T01:54:38;13.48;;;6.43;;
44270;SDS011;29963;44.594;11.368;2023-07-08T01:57:04;10.50;;;6.57;;
44270;SDS011;29963;44.594;11.368;2023-07-08T01:59:29;12.48;;;6.95;;
44270;SDS011;29963;44.594;11.368;2023-07-08T02:01:55;13.98;;;6.15;;
44270;SDS011;29963;44.594;11.368;2023-07-08T02:04:23;7.32;;;5.75;;
44270;SDS011;29963;44.594;11.368;2023-07-08T02:06:59;12.55;;;7.53;;
44270;SDS011;29963;44.594;11.368;2023-07-08T02:09:25;13.10;;;6.30;;
44270;SDS011;29963;44.594;11.368;2023-07-08T02:11:52;8.70;;;6.53;;
44270;SDS011;29963;44.594;11.368;2023-07-08T02:14:18;9.82;;;7.13;;
44270;SDS011;29963;44.594;11.368;2023-07-08T02:16:43;13.18;;;7.88;;
44270;SDS011;29963;44.594;11.368;2023-07-08T02:19:10;15.43;;;7.45;;
44270;SDS011;29963;44.594;11.368;2023-07-08T02:21:36;14.35;;;6.93;;
44270;SDS011;29963;44.594;11.368;2023-07-08T02:24:02;9.75;;;7.50;;
44270;SDS011;29963;44.594;11.368;2023-07-08T02:26:28;15.43;;;7.03;;
44270;SDS011;29963;44.594;11.368;2023-07-08T02:28:57;10.35;;;6.97;;
44270;SDS011;29963;44.594;11.368;2023-07-08T02:31:23;12.32;;;7.32;;
44270;SDS011;29963;44.594;11.368;2023-07-08T02:33:49;12.40;;;7.07;;
44270;SDS011;29963;44.594;11.368;2023-07-08T02:36:18;12.38;;;7.25;;
44270;SDS011;29963;44.594;11.368;2023-07-08T02:38:44;9.35;;;7.45;;
44270;SDS011;29963;44.594;11.368;2023-07-08T02:41:10;11.43;;;7.00;;
44270;SDS011;29963;44.594;11.368;2023-07-08T02:43:36;15.02;;;7.80;;
44270;SDS011;29963;44.594;11.368;2023-07-08T02:46:03;10.57;;;7.55;;
44270;SDS011;29963;44.594;11.368;2023-07-08T02:48:28;15.75;;;7.38;;
44270;SDS011;29963;44.594;11.368;2023-07-08T02:51:03;11.23;;;8.05;;
44270;SDS011;29963;44.594;11.368;2023-07-08T02:53:30;12.02;;;7.75;;
44270;SDS011;29963;44.594;11.368;2023-07-08T02:55:56;8.80;;;6.93;;
44270;SDS011;29963;44.594;11.368;2023-07-08T02:58:23;12.82;;;7.75;;
44270;SDS011;29963;44.594;11.368;2023-07-08T03:00:53;12.82;;;8.65;;
44270;SDS011;29963;44.594;11.368;2023-07-08T03:03:20;11.05;;;7.28;;
44270;SDS011;29963;44.594;11.368;2023-07-08T03:05:58;11.38;;;7.47;;
44270;SDS011;29963;44.594;11.368;2023-07-08T03:08:28;13.98;;;7.40;;
44270;SDS011;29963;44.594;11.368;2023-07-08T03:10:56;10.15;;;7.88;;
44270;SDS011;29963;44.594;11.368;2023-07-08T03:13:23;15.15;;;7.65;;
44270;SDS011;29963;44.594;11.368;2023-07-08T03:15:49;10.45;;;7.47;;
44270;SDS011;29963;44.594;11.368;2023-07-08T03:18:15;13.10;;;6.78;;
44270;SDS011;29963;44.594;11.368;2023-07-08T03:20:40;12.93;;;7.60;;
44270;SDS011;29963;44.594;11.368;2023-07-08T03:23:10;9.98;;;6.80;;
44270;SDS011;29963;44.594;11.368;2023-07-08T03:25:36;9.52;;;6.72;;
44270;SDS011;29963;44.594;11.368;2023-07-08T03:28:02;10.68;;;7.75;;
44270;SDS011;29963;44.594;11.368;2023-07-08T03:30:31;11.48;;;7.70;;
44270;SDS011;29963;44.594;11.368;2023-07-08T03:32:58;16.20;;;7.78;;
44270;SDS011;29963;44.594;11.368;2023-07-08T03:35:24;11.20;;;7.40;;
44270;SDS011;29963;44.594;11.368;2023-07-08T03:37:49;10.93;;;7.40;;
44270;SDS011;29963;44.594;11.368;2023-07-08T03:40:16;13.90;;;8.10;;
44270;SDS011;29963;44.594;11.368;2023-07-08T03:42:41;8.82;;;7.40;;
44270;SDS011;29963;44.594;11.368;2023-07-08T03:45:07;13.45;;;7.38;;
44270;SDS011;29963;44.594;11.368;2023-07-08T03:47:33;8.18;;;5.95;;
44270;SDS011;29963;44.594;11.368;2023-07-08T03:49:58;11.07;;;6.18;;
44270;SDS011;29963;44.594;11.368;2023-07-08T03:52:24;13.30;;;6.50;;
44270;SDS011;29963;44.594;11.368;2023-07-08T03:54:50;9.63;;;6.55;;
44270;SDS011;29963;44.594;11.368;2023-07-08T03:57:15;10.13;;;7.03;;
44270;SDS011;29963;44.594;11.368;2023-07-08T03:59:41;11.30;;;7.78;;
44270;SDS011;29963;44.594;11.368;2023-07-08T04:02:08;9.57;;;6.28;;
44270;SDS011;29963;44.594;11.368;2023-07-08T04:04:36;19.02;;;7.28;;
44270;SDS011;29963;44.594;11.368;2023-07-08T04:07:03;10.48;;;6.82;;
44270;SDS011;29963;44.594;11.368;2023-07-08T04:09:29;12.50;;;7.60;;
44270;SDS011;29963;44.594;11.368;2023-07-08T04:11:55;8.60;;;6.50;;
44270;SDS011;29963;44.594;11.368;2023-07-08T04:14:20;11.75;;;6.60;;
44270;SDS011;29963;44.594;11.368;2023-07-08T04:16:48;11.90;;;6.20;;
44270;SDS011;29963;44.594;11.368;2023-07-08T04:19:21;7.63;;;6.28;;
44270;SDS011;29963;44.594;11.368;2023-07-08T04:21:48;7.13;;;5.85;;
44270;SDS011;29963;44.594;11.368;2023-07-08T04:24:14;7.05;;;6.10;;
44270;SDS011;29963;44.594;11.368;2023-07-08T04:26:41;10.35;;;6.20;;
44270;SDS011;29963;44.594;11.368;2023-07-08T04:29:11;8.07;;;5.60;;
44270;SDS011;29963;44.594;11.368;2023-07-08T04:31:38;14.93;;;6.07;;
44270;SDS011;29963;44.594;11.368;2023-07-08T04:34:04;10.43;;;6.10;;
44270;SDS011;29963;44.594;11.368;2023-07-08T04:36:31;8.65;;;5.63;;
44270;SDS011;29963;44.594;11.368;2023-07-08T04:38:57;8.55;;;5.53;;
44270;SDS011;29963;44.594;11.368;2023-07-08T04:41:24;8.55;;;5.38;;
44270;SDS011;29963;44.594;11.368;2023-07-08T04:43:51;7.15;;;5.07;;
44270;SDS011;29963;44.594;11.368;2023-07-08T04:46:23;6.20;;;5.55;;
44270;SDS011;29963;44.594;11.368;2023-07-08T04:48:55;9.13;;;6.03;;
44270;SDS011;29963;44.594;11.368;2023-07-08T04:51:25;9.18;;;5.25;;
44270;SDS011;29963;44.594;11.368;2023-07-08T04:53:51;7.50;;;5.13;;
44270;SDS011;29963;44.594;11.368;2023-07-08T04:56:16;9.73;;;5.78;;
44270;SDS011;29963;44.594;11.368;2023-07-08T04:58:42;5.72;;;4.32;;
44270;SDS011;29963;44.594;11.368;2023-07-08T05:01:08;5.80;;;4.65;;
44270;SDS011;29963;44.594;11.368;2023-07-08T05:03:33;5.88;;;4.60;;
44270;SDS011;29963;44.594;11.368;2023-07-08T05:05:59;6.80;;;5.22;;
44270;SDS011;29963;44.594;11.368;2023-07-08T05:08:24;6.85;;;5.28;;
44270;SDS011;29963;44.594;11.368;2023-07-08T05:10:50;8.23;;;5.38;;
44270;SDS011;29963;44.594;11.368;2023-07-08T05:13:15;6.35;;;4.93;;
44270;SDS011;29963;44.594;11.368;2023-07-08T05:15:41;6.85;;;4.93;;
44270;SDS011;29963;44.594;11.368;2023-07-08T05:18:06;7.40;;;5.90;;
44270;SDS011;29963;44.594;11.368;2023-07-08T05:20:32;7.10;;;4.97;;
44270;SDS011;29963;44.594;11.368;2023-07-08T05:22:59;7.75;;;5.55;;
44270;SDS011;29963;44.594;11.368;2023-07-08T05:25:25;6.68;;;4.78;;
44270;SDS011;29963;44.594;11.368;2023-07-08T05:27:52;5.68;;;4.70;;
44270;SDS011;29963;44.594;11.368;2023-07-08T05:30:18;8.82;;;4.80;;
44270;SDS011;29963;44.594;11.368;2023-07-08T05:32:44;5.38;;;4.35;;
44270;SDS011;29963;44.594;11.368;2023-07-08T05:35:10;8.45;;;5.10;;
44270;SDS011;29963;44.594;11.368;2023-07-08T05:37:36;5.78;;;4.88;;
44270;SDS011;29963;44.594;11.368;2023-07-08T05:40:02;10.40;;;5.68;;
44270;SDS011;29963;44.594;11.368;2023-07-08T05:42:29;7.95;;;4.35;;
44270;SDS011;29963;44.594;11.368;2023-07-08T05:44:55;7.75;;;5.07;;
44270;SDS011;29963;44.594;11.368;2023-07-08T05:47:20;12.32;;;5.18;;
44270;SDS011;29963;44.594;11.368;2023-07-08T05:49:47;7.85;;;5.43;;
44270;SDS011;29963;44.594;11.368;2023-07-08T05:52:12;7.60;;;4.82;;
44270;SDS011;29963;44.594;11.368;2023-07-08T05:54:38;8.05;;;5.40;;
44270;SDS011;29963;44.594;11.368;2023-07-08T05:57:06;7.93;;;5.03;;
44270;SDS011;29963;44.594;11.368;2023-07-08T05:59:33;7.90;;;5.47;;
44270;SDS011;29963;44.594;11.368;2023-07-08T06:01:59;10.23;;;5.57;;
44270;SDS011;29963;44.594;11.368;2023-07-08T06:04:26;8.85;;;5.70;;
44270;SDS011;29963;44.594;11.368;2023-07-08T06:06:52;6.05;;;4.45;;
44270;SDS011;29963;44.594;11.368;2023-07-08T06:09:18;6.32;;;4.75;;
44270;SDS011;29963;44.594;11.368;2023-07-08T06:11:43;10.50;;;4.93;;
44270;SDS011;29963;44.594;11.368;2023-07-08T06:14:09;9.85;;;5.70;;
44270;SDS011;29963;44.594;11.368;2023-07-08T06:16:34;7.63;;;5.07;;
44270;SDS011;29963;44.594;11.368;2023-07-08T06:19:00;7.28;;;4.95;;
44270;SDS011;29963;44.594;11.368;2023-07-08T06:21:26;6.40;;;4.50;;
44270;SDS011;29963;44.594;11.368;2023-07-08T06:23:51;7.65;;;4.53;;
44270;SDS011;29963;44.594;11.368;2023-07-08T06:26:17;5.35;;;3.83;;
44270;SDS011;29963;44.594;11.368;2023-07-08T06:28:42;5.88;;;4.10;;
44270;SDS011;29963;44.594;11.368;2023-07-08T06:31:08;6.35;;;4.80;;
44270;SDS011;29963;44.594;11.368;2023-07-08T06:33:34;5.03;;;4.28;;
44270;SDS011;29963;44.594;11.368;2023-07-08T06:35:59;3.95;;;3.55;;
44270;SDS011;29963;44.594;11.368;2023-07-08T06:38:25;5.95;;;4.50;;
44270;SDS011;29963;44.594;11.368;2023-07-08T06:40:50;7.43;;;4.50;;
44270;SDS011;29963;44.594;11.368;2023-07-08T06:43:16;5.13;;;4.15;;
44270;SDS011;29963;44.594;11.368;2023-07-08T06:45:43;7.82;;;4.80;;
44270;SDS011;29963;44.594;11.368;2023-07-08T06:48:08;9.55;;;4.65;;
44270;SDS011;29963;44.594;11.368;2023-07-08T06:50:34;6.30;;;4.65;;
44270;SDS011;29963;44.594;11.368;2023-07-08T06:53:00;7.22;;;4.28;;
44270;SDS011;29963;44.594;11.368;2023-07-08T06:55:25;6.07;;;4.22;;
44270;SDS011;29963;44.594;11.368;2023-07-08T06:57:51;8.07;;;5.05;;
44270;SDS011;29963;44.594;11.368;2023-07-08T07:00:17;6.20;;;4.68;;
44270;SDS011;29963;44.594;11.368;2023-07-08T07:02:43;5.95;;;4.30;;
44270;SDS011;29963;44.594;11.368;2023-07-08T07:05:08;5.95;;;4.85;;
44270;SDS011;29963;44.594;11.368;2023-07-08T07:07:34;6.03;;;3.90;;
44270;SDS011;29963;44.594;11.368;2023-07-08T07:10:00;4.28;;;3.60;;
44270;SDS011;29963;44.594;11.368;2023-07-08T07:12:26;8.32;;;4.55;;
44270;SDS011;29963;44.594;11.368;2023-07-08T07:14:52;6.40;;;3.97;;
44270;SDS011;29963;44.594;11.368;2023-07-08T07:17:22;6.57;;;4.40;;
44270;SDS011;29963;44.594;11.368;2023-07-08T07:19:50;4.40;;;3.60;;
44270;SDS011;29963;44.594;11.368;2023-07-08T07:22:15;8.40;;;4.55;;
44270;SDS011;29963;44.594;11.368;2023-07-08T07:24:41;6.15;;;4.60;;
44270;SDS011;29963;44.594;11.368;2023-07-08T07:27:08;5.07;;;3.60;;
44270;SDS011;29963;44.594;11.368;2023-07-08T07:29:41;6.07;;;3.85;;
44270;SDS011;29963;44.594;11.368;2023-07-08T07:32:09;5.47;;;4.10;;
44270;SDS011;29963;44.594;11.368;2023-07-08T07:34:36;5.35;;;3.90;;
44270;SDS011;29963;44.594;11.368;2023-07-08T07:37:02;6.30;;;4.63;;
44270;SDS011;29963;44.594;11.368;2023-07-08T07:39:27;8.27;;;4.43;;
44270;SDS011;29963;44.594;11.368;2023-07-08T07:41:53;7.13;;;4.30;;
44270;SDS011;29963;44.594;11.368;2023-07-08T07:44:19;4.63;;;3.72;;
44270;SDS011;29963;44.594;11.368;2023-07-08T07:46:45;7.28;;;3.80;;
44270;SDS011;29963;44.594;11.368;2023-07-08T07:49:12;6.75;;;3.80;;
44270;SDS011;29963;44.594;11.368;2023-07-08T07:51:37;4.65;;;3.45;;
44270;SDS011;29963;44.594;11.368;2023-07-08T07:54:03;6.22;;;4.38;;
44270;SDS011;29963;44.594;11.368;2023-07-08T07:56:29;5.85;;;3.42;;
44270;SDS011;29963;44.594;11.368;2023-07-08T07:58:54;5.03;;;3.67;;
44270;SDS011;29963;44.594;11.368;2023-07-08T08:01:20;7.25;;;4.13;;
44270;SDS011;29963;44.594;11.368;2023-07-08T08:03:46;6.90;;;3.97;;
44270;SDS011;29963;44.594;11.368;2023-07-08T08:06:15;6.32;;;4.45;;
44270;SDS011;29963;44.594;11.368;2023-07-08T08:08:42;6.25;;;4.47;;
44270;SDS011;29963;44.594;11.368;2023-07-08T08:11:08;5.50;;;3.90;;
44270;SDS011;29963;44.594;11.368;2023-07-08T08:13:34;5.47;;;3.55;;
44270;SDS011;29963;44.594;11.368;2023-07-08T08:16:00;4.50;;;3.78;;
44270;SDS011;29963;44.594;11.368;2023-07-08T08:18:26;6.15;;;4.25;;
44270;SDS011;29963;44.594;11.368;2023-07-08T08:20:51;6.38;;;4.45;;
44270;SDS011;29963;44.594;11.368;2023-07-08T08:23:17;7.65;;;4.45;;
44270;SDS011;29963;44.594;11.368;2023-07-08T08:25:43;7.57;;;4.28;;
44270;SDS011;29963;44.594;11.368;2023-07-08T08:28:08;5.55;;;3.65;;
44270;SDS011;29963;44.594;11.368;2023-07-08T08:30:34;4.82;;;4.30;;
44270;SDS011;29963;44.594;11.368;2023-07-08T08:33:00;9.00;;;5.25;;
44270;SDS011;29963;44.594;11.368;2023-07-08T08:35:26;5.18;;;4.07;;
44270;SDS011;29963;44.594;11.368;2023-07-08T08:37:52;10.18;;;5.95;;
44270;SDS011;29963;44.594;11.368;2023-07-08T08:40:19;6.40;;;4.88;;
44270;SDS011;29963;44.594;11.368;2023-07-08T08:42:52;5.88;;;4.75;;
44270;SDS011;29963;44.594;11.368;2023-07-08T08:45:24;6.47;;;4.68;;
44270;SDS011;29963;44.594;11.368;2023-07-08T08:47:54;5.30;;;4.38;;
44270;SDS011;29963;44.594;11.368;2023-07-08T08:53:15;5.57;;;3.75;;
44270;SDS011;29963;44.594;11.368;2023-07-08T08:55:42;7.10;;;4.82;;
44270;SDS011;29963;44.594;11.368;2023-07-08T09:01:02;4.93;;;4.10;;
44270;SDS011;29963;44.594;11.368;2023-07-08T09:06:26;5.35;;;3.55;;
44270;SDS011;29963;44.594;11.368;2023-07-08T09:09:01;6.30;;;5.15;;
44270;SDS011;29963;44.594;11.368;2023-07-08T09:11:50;8.70;;;6.60;;
44270;SDS011;29963;44.594;11.368;2023-07-08T09:14:23;10.48;;;7.80;;
44270;SDS011;29963;44.594;11.368;2023-07-08T09:19:38;6.15;;;4.30;;
44270;SDS011;29963;44.594;11.368;2023-07-08T09:22:14;7.30;;;4.60;;
44270;SDS011;29963;44.594;11.368;2023-07-08T09:24:49;6.85;;;5.05;;
44270;SDS011;29963;44.594;11.368;2023-07-08T09:27:19;5.93;;;4.57;;
44270;SDS011;29963;44.594;11.368;2023-07-08T09:29:45;5.55;;;3.65;;
44270;SDS011;29963;44.594;11.368;2023-07-08T09:32:14;7.30;;;4.32;;
44270;SDS011;29963;44.594;11.368;2023-07-08T09:34:46;8.85;;;4.60;;
44270;SDS011;29963;44.594;11.368;2023-07-08T09:37:48;5.45;;;3.75;;
44270;SDS011;29963;44.594;11.368;2023-07-08T09:42:46;5.53;;;4.25;;
44270;SDS011;29963;44.594;11.368;2023-07-08T09:45:22;5.85;;;4.32;;
44270;SDS011;29963;44.594;11.368;2023-07-08T09:47:52;6.93;;;4.32;;
44270;SDS011;29963;44.594;11.368;2023-07-08T09:50:23;6.93;;;4.18;;
44270;SDS011;29963;44.594;11.368;2023-07-08T09:52:57;5.28;;;3.40;;
44270;SDS011;29963;44.594;11.368;2023-07-08T09:55:26;6.38;;;4.45;;
44270;SDS011;29963;44.594;11.368;2023-07-08T09:57:53;5.38;;;4.20;;
44270;SDS011;29963;44.594;11.368;2023-07-08T10:00:28;5.70;;;4.63;;
44270;SDS011;29963;44.594;11.368;2023-07-08T10:03:00;9.30;;;3.85;;
44270;SDS011;29963;44.594;11.368;2023-07-08T10:05:32;4.70;;;3.72;;
44270;SDS011;29963;44.594;11.368;2023-07-08T10:08:10;5.78;;;4.22;;
44270;SDS011;29963;44.594;11.368;2023-07-08T10:10:39;8.93;;;4.00;;
44270;SDS011;29963;44.594;11.368;2023-07-08T10:15:54;5.15;;;3.90;;
44270;SDS011;29963;44.594;11.368;2023-07-08T10:18:27;4.53;;;3.88;;
44270;SDS011;29963;44.594;11.368;2023-07-08T10:24:09;4.35;;;3.88;;
44270;SDS011;29963;44.594;11.368;2023-07-08T10:32:43;6.45;;;4.15;;
44270;SDS011;29963;44.594;11.368;2023-07-08T10:35:27;6.57;;;4.15;;
44270;SDS011;29963;44.594;11.368;2023-07-08T10:38:01;6.68;;;3.92;;
44270;SDS011;29963;44.594;11.368;2023-07-08T10:43:36;5.20;;;4.00;;
44270;SDS011;29963;44.594;11.368;2023-07-08T10:54:17;5.65;;;3.97;;
44270;SDS011;29963;44.594;11.368;2023-07-08T10:56:55;5.85;;;4.07;;
44270;SDS011;29963;44.594;11.368;2023-07-08T10:59:41;6.80;;;4.20;;
44270;SDS011;29963;44.594;11.368;2023-07-08T11:07:54;6.38;;;4.47;;
44270;SDS011;29963;44.594;11.368;2023-07-08T11:10:45;7.15;;;3.53;;
44270;SDS011;29963;44.594;11.368;2023-07-08T11:13:24;5.70;;;4.07;;
44270;SDS011;29963;44.594;11.368;2023-07-08T11:21:19;10.23;;;4.30;;
44270;SDS011;29963;44.594;11.368;2023-07-08T11:23:49;4.97;;;3.38;;
44270;SDS011;29963;44.594;11.368;2023-07-08T11:26:32;6.10;;;3.50;;
44270;SDS011;29963;44.594;11.368;2023-07-08T11:29:09;4.70;;;3.97;;
44270;SDS011;29963;44.594;11.368;2023-07-08T11:31:42;5.88;;;4.07;;
44270;SDS011;29963;44.594;11.368;2023-07-08T11:34:09;6.65;;;5.05;;
44270;SDS011;29963;44.594;11.368;2023-07-08T11:36:37;7.05;;;4.40;;
44270;SDS011;29963;44.594;11.368;2023-07-08T11:39:04;4.75;;;3.78;;
44270;SDS011;29963;44.594;11.368;2023-07-08T11:41:53;5.95;;;4.38;;
44270;SDS011;29963;44.594;11.368;2023-07-08T11:44:53;5.78;;;4.88;;
44270;SDS011;29963;44.594;11.368;2023-07-08T11:47:31;6.43;;;4.45;;
44270;SDS011;29963;44.594;11.368;2023-07-08T11:50:01;17.02;;;5.40;;
44270;SDS011;29963;44.594;11.368;2023-07-08T11:52:27;6.60;;;4.20;;
44270;SDS011;29963;44.594;11.368;2023-07-08T11:55:11;4.78;;;3.75;;
44270;SDS011;29963;44.594;11.368;2023-07-08T11:57:49;6.65;;;5.35;;
44270;SDS011;29963;44.594;11.368;2023-07-08T12:00:22;6.15;;;3.92;;
44270;SDS011;29963;44.594;11.368;2023-07-08T12:02:51;9.02;;;4.85;;
44270;SDS011;29963;44.594;11.368;2023-07-08T12:05:17;8.65;;;4.60;;
44270;SDS011;29963;44.594;11.368;2023-07-08T12:07:58;4.80;;;3.90;;
44270;SDS011;29963;44.594;11.368;2023-07-08T12:10:26;5.75;;;4.35;;
44270;SDS011;29963;44.594;11.368;2023-07-08T12:13:02;7.00;;;5.25;;
44270;SDS011;29963;44.594;11.368;2023-07-08T12:15:32;8.02;;;5.85;;
44270;SDS011;29963;44.594;11.368;2023-07-08T12:18:19;9.40;;;5.57;;
44270;SDS011;29963;44.594;11.368;2023-07-08T12:20:56;4.78;;;3.85;;
44270;SDS011;29963;44.594;11.368;2023-07-08T12:23:24;4.60;;;3.88;;
44270;SDS011;29963;44.594;11.368;2023-07-08T12:25:51;5.78;;;4.22;;
44270;SDS011;29963;44.594;11.368;2023-07-08T12:28:17;5.15;;;4.40;;
44270;SDS011;29963;44.594;11.368;2023-07-08T12:30:44;6.05;;;3.70;;
44270;SDS011;29963;44.594;11.368;2023-07-08T12:33:12;5.20;;;3.65;;
44270;SDS011;29963;44.594;11.368;2023-07-08T12:35:41;7.72;;;3.80;;
44270;SDS011;29963;44.594;11.368;2023-07-08T12:38:18;5.32;;;3.83;;
44270;SDS011;29963;44.594;11.368;2023-07-08T12:40:52;5.38;;;3.88;;
44270;SDS011;29963;44.594;11.368;2023-07-08T12:43:18;5.53;;;3.53;;
44270;SDS011;29963;44.594;11.368;2023-07-08T12:45:44;6.72;;;4.25;;
44270;SDS011;29963;44.594;11.368;2023-07-08T12:48:10;9.65;;;4.38;;
44270;SDS011;29963;44.594;11.368;2023-07-08T12:50:36;5.32;;;4.13;;
44270;SDS011;29963;44.594;11.368;2023-07-08T12:53:03;5.10;;;3.55;;
44270;SDS011;29963;44.594;11.368;2023-07-08T12:55:34;4.50;;;3.83;;
44270;SDS011;29963;44.594;11.368;2023-07-08T12:58:05;7.90;;;4.10;;
44270;SDS011;29963;44.594;11.368;2023-07-08T13:00:32;5.53;;;3.40;;
44270;SDS011;29963;44.594;11.368;2023-07-08T13:03:12;6.47;;;3.90;;
44270;SDS011;29963;44.594;11.368;2023-07-08T13:05:40;5.72;;;4.40;;
44270;SDS011;29963;44.594;11.368;2023-07-08T13:08:07;7.25;;;4.07;;
44270;SDS011;29963;44.594;11.368;2023-07-08T13:10:42;5.55;;;3.83;;
44270;SDS011;29963;44.594;11.368;2023-07-08T13:13:11;4.78;;;3.90;;
44270;SDS011;29963;44.594;11.368;2023-07-08T13:15:43;4.22;;;3.70;;
44270;SDS011;29963;44.594;11.368;2023-07-08T13:18:17;6.38;;;3.63;;
44270;SDS011;29963;44.594;11.368;2023-07-08T13:21:04;4.40;;;3.25;;
44270;SDS011;29963;44.594;11.368;2023-07-08T13:23:31;9.95;;;3.72;;
44270;SDS011;29963;44.594;11.368;2023-07-08T13:25:57;4.90;;;4.00;;
44270;SDS011;29963;44.594;11.368;2023-07-08T13:28:27;5.75;;;3.53;;
44270;SDS011;29963;44.594;11.368;2023-07-08T13:30:58;3.78;;;3.03;;
44270;SDS011;29963;44.594;11.368;2023-07-08T13:33:33;5.90;;;3.78;;
44270;SDS011;29963;44.594;11.368;2023-07-08T13:36:02;5.55;;;4.05;;
44270;SDS011;29963;44.594;11.368;2023-07-08T13:38:37;7.45;;;4.28;;
44270;SDS011;29963;44.594;11.368;2023-07-08T13:41:04;8.07;;;4.50;;
44270;SDS011;29963;44.594;11.368;2023-07-08T13:43:32;5.45;;;3.78;;
44270;SDS011;29963;44.594;11.368;2023-07-08T13:46:04;4.68;;;3.25;;
44270;SDS011;29963;44.594;11.368;2023-07-08T13:48:33;5.25;;;3.40;;
44270;SDS011;29963;44.594;11.368;2023-07-08T13:56:13;6.75;;;4.35;;
44270;SDS011;29963;44.594;11.368;2023-07-08T13:59:00;4.47;;;3.55;;
44270;SDS011;29963;44.594;11.368;2023-07-08T14:01:30;4.85;;;3.40;;
44270;SDS011;29963;44.594;11.368;2023-07-08T14:03:57;6.50;;;4.03;;
44270;SDS011;29963;44.594;11.368;2023-07-08T14:06:28;5.70;;;3.53;;
44270;SDS011;29963;44.594;11.368;2023-07-08T14:09:06;4.43;;;3.83;;
44270;SDS011;29963;44.594;11.368;2023-07-08T14:11:37;5.65;;;3.75;;
44270;SDS011;29963;44.594;11.368;2023-07-08T14:14:03;4.85;;;3.50;;
44270;SDS011;29963;44.594;11.368;2023-07-08T14:16:29;6.30;;;4.03;;
44270;SDS011;29963;44.594;11.368;2023-07-08T14:18:56;5.32;;;4.05;;
44270;SDS011;29963;44.594;11.368;2023-07-08T14:21:23;5.97;;;3.80;;
44270;SDS011;29963;44.594;11.368;2023-07-08T14:23:48;5.95;;;3.80;;
44270;SDS011;29963;44.594;11.368;2023-07-08T14:26:14;4.50;;;2.95;;
44270;SDS011;29963;44.594;11.368;2023-07-08T14:28:40;4.85;;;3.40;;
44270;SDS011;29963;44.594;11.368;2023-07-08T14:31:12;5.70;;;3.67;;
44270;SDS011;29963;44.594;11.368;2023-07-08T14:33:41;4.97;;;3.47;;
44270;SDS011;29963;44.594;11.368;2023-07-08T14:36:09;4.28;;;3.40;;
44270;SDS011;29963;44.594;11.368;2023-07-08T14:38:36;4.40;;;3.30;;
44270;SDS011;29963;44.594;11.368;2023-07-08T14:41:02;4.43;;;3.58;;
44270;SDS011;29963;44.594;11.368;2023-07-08T14:43:29;4.70;;;3.75;;
44270;SDS011;29963;44.594;11.368;2023-07-08T14:45:56;8.07;;;4.10;;
44270;SDS011;29963;44.594;11.368;2023-07-08T14:48:23;4.53;;;3.42;;
44270;SDS011;29963;44.594;11.368;2023-07-08T14:50:49;5.28;;;3.85;;
44270;SDS011;29963;44.594;11.368;2023-07-08T14:53:15;5.45;;;3.13;;
44270;SDS011;29963;44.594;11.368;2023-07-08T14:55:43;6.82;;;3.70;;
44270;SDS011;29963;44.594;11.368;2023-07-08T14:58:16;6.68;;;3.63;;
44270;SDS011;29963;44.594;11.368;2023-07-08T15:00:43;5.68;;;3.30;;
44270;SDS011;29963;44.594;11.368;2023-07-08T15:03:08;6.50;;;3.63;;
44270;SDS011;29963;44.594;11.368;2023-07-08T15:05:35;6.35;;;3.33;;
44270;SDS011;29963;44.594;11.368;2023-07-08T15:08:00;4.00;;;2.95;;
44270;SDS011;29963;44.594;11.368;2023-07-08T15:10:27;4.78;;;3.95;;
44270;SDS011;29963;44.594;11.368;2023-07-08T15:12:54;4.32;;;3.65;;
44270;SDS011;29963;44.594;11.368;2023-07-08T15:15:23;5.18;;;3.63;;
44270;SDS011;29963;44.594;11.368;2023-07-08T15:17:53;5.35;;;3.55;;
44270;SDS011;29963;44.594;11.368;2023-07-08T15:20:19;5.88;;;3.83;;
44270;SDS011;29963;44.594;11.368;2023-07-08T15:22:45;4.75;;;3.35;;
44270;SDS011;29963;44.594;11.368;2023-07-08T15:25:12;7.03;;;3.83;;
44270;SDS011;29963;44.594;11.368;2023-07-08T15:27:43;4.65;;;3.15;;
44270;SDS011;29963;44.594;11.368;2023-07-08T15:30:15;6.07;;;3.65;;
44270;SDS011;29963;44.594;11.368;2023-07-08T15:32:43;4.97;;;3.45;;
44270;SDS011;29963;44.594;11.368;2023-07-08T15:35:11;3.95;;;3.08;;
44270;SDS011;29963;44.594;11.368;2023-07-08T15:37:38;9.00;;;3.95;;
44270;SDS011;29963;44.594;11.368;2023-07-08T15:40:04;4.93;;;3.00;;